< < Back
Terminal Aerodrome Forecast


Current Version              Previous Versions:   1  2  3  4  5  6  7  8  9  

Terminal Aerodrome Forecast

630
FTUS42 KJAX 012320
TAFSSI
TAF
KSSI 012320Z 0200/0224 24010KT P6SM SCT060 SCT250
     FM020200 23004KT P6SM SCT150
     FM021400 25008KT P6SM SCT030 SCT250
     FM021800 20010KT P6SM VCTS BKN040CB=

Latest METAR

040
SAUS70 KWBC 020800 RRE
MTRSSI
METAR KSSI 020753Z AUTO 26004KT 10SM CLR 24/22 A3002 RMK AO2 SLP167
T02440222


USA.gov is the U.S. government's official web portal to all federal, state and local government web resources and services.